Time;durP1;ratioP1;P1;durP2;ratioP2;P2;SDS_P1;SDS_P2;PMS_P1;PMS_P2;Temp;Humidity;BMP_temperature;BMP_pressure;BME280_temperature;BME280_humidity;BME280_pressure;Samples;Min_cycle;Max_cycle;Signal;HPM_P1;HPM_P2
2020/12/26 00:01:41;;;;;;;25.83;23.73;;;2.00;88.70;;;;;;5042205;28;20201;-78
2020/12/26 00:04:08;;;;;;;27.35;25.25;;;2.00;88.40;;;;;;5052621;28;20296;-78
2020/12/26 00:06:34;;;;;;;24.15;22.50;;;2.10;87.90;;;;;;5050600;28;20212;-78
2020/12/26 00:09:00;;;;;;;25.42;23.13;;;2.00;88.00;;;;;;5033300;28;20209;-78
2020/12/26 00:11:27;;;;;;;25.90;23.90;;;1.90;88.50;;;;;;5033404;28;20696;-78
2020/12/26 00:13:54;;;;;;;25.45;23.65;;;1.80;88.70;;;;;;5033314;28;20200;-78
2020/12/26 00:16:20;;;;;;;25.98;24.00;;;2.00;88.80;;;;;;5033494;28;20720;-78
2020/12/26 00:18:47;;;;;;;25.00;23.05;;;1.90;88.60;;;;;;5033206;28;20573;-78
2020/12/26 00:21:15;;;;;;;25.85;23.88;;;1.80;89.10;;;;;;5033129;28;20211;-78
2020/12/26 00:23:42;;;;;;;26.52;24.42;;;1.80;89.20;;;;;;5032987;28;20214;-78
2020/12/26 00:26:08;;;;;;;26.70;24.40;;;1.80;89.50;;;;;;5032611;28;20216;-78
2020/12/26 00:28:35;;;;;;;25.65;23.65;;;1.70;89.70;;;;;;5033178;28;20296;-78
2020/12/26 00:31:03;;;;;;;25.00;23.30;;;1.70;90.00;;;;;;5032981;28;20562;-78
2020/12/26 00:33:31;;;;;;;24.77;23.02;;;1.60;90.10;;;;;;5033184;28;20704;-78
2020/12/26 00:35:57;;;;;;;25.65;23.63;;;1.50;90.40;;;;;;5041016;28;20219;-78
2020/12/26 00:38:23;;;;;;;26.85;24.63;;;1.40;90.70;;;;;;5052850;28;20204;-78
2020/12/26 00:40:50;;;;;;;24.42;22.73;;;1.40;90.80;;;;;;5052388;28;20222;-78
2020/12/26 00:43:16;;;;;;;24.35;22.65;;;1.50;90.50;;;;;;5052808;28;20212;-78
2020/12/26 00:45:43;;;;;;;27.75;25.45;;;1.50;90.10;;;;;;5045668;28;20837;-78
2020/12/26 00:48:10;;;;;;;26.58;24.38;;;1.40;90.50;;;;;;5032754;28;20201;-78
2020/12/26 00:50:36;;;;;;;25.30;23.10;;;1.40;90.70;;;;;;5032771;28;20199;-78
2020/12/26 00:53:02;;;;;;;26.10;24.00;;;1.30;91.10;;;;;;5032848;28;20253;-78
2020/12/26 00:55:29;;;;;;;26.60;24.20;;;1.30;91.20;;;;;;5037831;28;20272;-77
2020/12/26 00:57:55;;;;;;;25.65;23.42;;;1.30;91.40;;;;;;5057702;28;20223;-78
2020/12/26 01:00:21;;;;;;;25.48;23.55;;;1.20;91.60;;;;;;5052319;28;20595;-78
2020/12/26 01:02:48;;;;;;;25.30;23.40;;;1.30;91.60;;;;;;5052333;28;20215;-78
2020/12/26 01:05:15;;;;;;;27.55;25.05;;;1.30;91.50;;;;;;5050094;28;20658;-78
2020/12/26 01:07:41;;;;;;;25.05;23.20;;;1.20;91.50;;;;;;5032363;28;20196;-78
2020/12/26 01:10:08;;;;;;;25.25;23.15;;;1.20;91.70;;;;;;5032513;28;20212;-78
2020/12/26 01:12:34;;;;;;;26.08;23.85;;;1.30;91.60;;;;;;5033533;28;20218;-78
2020/12/26 01:15:00;;;;;;;25.40;23.40;;;1.20;91.70;;;;;;5032497;28;20188;-78
2020/12/26 01:17:27;;;;;;;25.70;23.80;;;1.20;91.80;;;;;;5033004;28;20220;-78
2020/12/26 01:19:53;;;;;;;26.95;24.92;;;1.20;91.90;;;;;;5036615;28;20539;-78
2020/12/26 01:22:20;;;;;;;27.15;25.02;;;1.20;91.80;;;;;;5051796;28;20195;-78
2020/12/26 01:24:46;;;;;;;26.15;23.75;;;1.20;91.80;;;;;;5056427;28;20290;-78
2020/12/26 01:27:13;;;;;;;26.40;24.40;;;1.10;91.80;;;;;;5056243;28;20223;-78
2020/12/26 01:29:39;;;;;;;26.85;24.65;;;1.10;91.70;;;;;;5056353;28;20195;-78
2020/12/26 01:32:05;;;;;;;26.65;24.65;;;1.10;91.80;;;;;;5042619;28;20199;-78
2020/12/26 01:34:32;;;;;;;28.15;25.85;;;1.00;92.00;;;;;;5036233;28;20185;-78
2020/12/26 01:36:58;;;;;;;27.90;25.65;;;1.00;92.00;;;;;;5036007;28;20754;-78
2020/12/26 01:39:25;;;;;;;26.98;24.73;;;0.90;91.90;;;;;;5036355;28;20358;-78
2020/12/26 01:41:53;;;;;;;26.77;24.42;;;0.90;91.90;;;;;;5047920;28;20694;-78
2020/12/26 01:44:20;;;;;;;27.50;25.35;;;0.90;92.10;;;;;;5056148;28;20219;-77
2020/12/26 01:46:48;;;;;;;27.40;24.80;;;1.00;91.70;;;;;;5055506;28;20227;-77
2020/12/26 01:49:15;;;;;;;26.98;24.60;;;0.90;91.70;;;;;;5054234;28;20557;-77
2020/12/26 01:51:44;;;;;;;28.05;25.52;;;0.90;91.90;;;;;;5056029;28;20201;-77
2020/12/26 01:54:11;;;;;;;28.30;25.85;;;0.80;92.30;;;;;;5042798;28;20192;-77
2020/12/26 01:56:39;;;;;;;27.70;25.40;;;0.80;92.70;;;;;;5035705;28;20224;-77
2020/12/26 01:59:06;;;;;;;27.48;24.98;;;0.80;92.90;;;;;;5036197;28;20213;-77
2020/12/26 02:01:33;;;;;;;26.13;24.13;;;0.80;92.80;;;;;;5036459;28;20222;-77
2020/12/26 02:04:00;;;;;;;25.42;23.33;;;0.90;92.80;;;;;;5035742;28;20234;-78
2020/12/26 02:06:30;;;;;;;26.50;24.40;;;1.00;92.60;;;;;;5035722;28;20220;-78
2020/12/26 02:08:59;;;;;;;28.85;26.45;;;1.10;92.80;;;;;;5051363;28;20665;-77
2020/12/26 02:11:26;;;;;;;26.42;24.13;;;1.10;93.00;;;;;;5055543;28;20210;-77
2020/12/26 02:13:53;;;;;;;26.38;23.98;;;1.20;93.10;;;;;;5055559;28;20201;-78
2020/12/26 02:16:19;;;;;;;26.92;24.83;;;1.30;92.70;;;;;;5055265;28;20662;-78
2020/12/26 02:18:46;;;;;;;27.98;25.08;;;1.30;92.70;;;;;;5041611;28;20197;-78
2020/12/26 02:21:12;;;;;;;26.35;24.27;;;1.40;92.20;;;;;;5035466;28;20197;-78
2020/12/26 02:23:43;;;;;;;26.48;24.33;;;1.40;91.60;;;;;;5035371;28;20228;-78
2020/12/26 02:26:10;;;;;;;27.13;24.80;;;1.40;91.50;;;;;;5035059;28;20221;-78
2020/12/26 02:28:36;;;;;;;28.42;25.95;;;1.40;91.80;;;;;;5046116;28;20202;-78
2020/12/26 02:31:03;;;;;;;27.50;24.70;;;1.50;91.60;;;;;;5055138;28;20289;-78
2020/12/26 02:33:30;;;;;;;27.70;25.40;;;1.50;91.90;;;;;;5055289;28;20235;-78
2020/12/26 02:35:57;;;;;;;26.88;24.67;;;1.50;91.50;;;;;;5051640;28;20212;-76
2020/12/26 02:38:23;;;;;;;26.40;24.17;;;1.40;91.50;;;;;;5035080;28;20204;-76
2020/12/26 02:40:51;;;;;;;25.60;23.52;;;1.50;90.80;;;;;;5034824;28;20295;-76
2020/12/26 02:43:20;;;;;;;26.33;24.17;;;1.50;90.40;;;;;;5035223;28;20220;-76
2020/12/26 02:45:48;;;;;;;26.35;24.15;;;1.40;90.50;;;;;;5043247;28;20227;-76
2020/12/26 02:48:14;;;;;;;26.70;24.58;;;1.30;90.90;;;;;;5055003;28;20203;-76
2020/12/26 02:50:41;;;;;;;26.80;24.30;;;1.30;90.90;;;;;;5054800;28;20199;-76
2020/12/26 02:53:07;;;;;;;25.88;23.83;;;1.30;91.70;;;;;;5049632;28;20190;-76
2020/12/26 02:55:34;;;;;;;27.83;25.20;;;1.20;91.80;;;;;;5034533;28;20220;-76
2020/12/26 02:58:01;;;;;;;28.50;26.08;;;1.20;91.90;;;;;;5034699;28;20208;-76
2020/12/26 03:00:27;;;;;;;29.67;26.88;;;1.30;91.60;;;;;;5034520;28;20660;-76
2020/12/26 03:02:54;;;;;;;26.90;24.90;;;1.30;91.70;;;;;;5037030;28;20225;-76
2020/12/26 03:05:20;;;;;;;26.80;24.80;;;1.40;91.30;;;;;;5039723;28;20696;-75
2020/12/26 03:07:47;;;;;;;28.58;26.05;;;1.40;90.70;;;;;;5045102;28;20195;-75
2020/12/26 03:10:13;;;;;;;28.02;25.58;;;1.30;91.20;;;;;;5053913;28;20203;-76
2020/12/26 03:12:39;;;;;;;28.20;25.63;;;1.20;92.00;;;;;;5054252;28;20806;-76
2020/12/26 03:15:07;;;;;;;29.48;26.90;;;1.20;92.10;;;;;;5047820;28;20203;-75
2020/12/26 03:17:34;;;;;;;28.23;25.73;;;1.20;92.30;;;;;;5034237;28;20677;-76
2020/12/26 03:20:01;;;;;;;29.77;26.50;;;1.20;92.60;;;;;;5034301;28;20663;-75
2020/12/26 03:22:28;;;;;;;27.15;24.67;;;1.20;92.50;;;;;;5035103;28;20195;-75
2020/12/26 03:24:55;;;;;;;27.80;25.30;;;1.20;91.90;;;;;;5034178;28;20206;-75
2020/12/26 03:27:22;;;;;;;27.30;24.90;;;1.10;92.10;;;;;;5033849;28;20222;-75
2020/12/26 03:29:49;;;;;;;25.95;23.83;;;1.10;92.00;;;;;;5034220;28;20720;-75
2020/12/26 03:32:17;;;;;;;27.95;25.58;;;1.00;92.10;;;;;;5033916;28;20286;-75
2020/12/26 03:34:43;;;;;;;29.58;26.92;;;1.00;92.40;;;;;;5034097;28;20196;-76
2020/12/26 03:37:10;;;;;;;27.10;24.80;;;1.00;92.60;;;;;;5033514;28;20221;-76
2020/12/26 03:39:36;;;;;;;29.27;26.75;;;1.00;92.70;;;;;;5033415;28;20201;-76
2020/12/26 03:42:04;;;;;;;27.50;25.30;;;1.00;92.60;;;;;;5033327;28;20212;-76
2020/12/26 03:44:30;;;;;;;27.58;25.27;;;1.00;92.30;;;;;;5039453;28;20227;-76
2020/12/26 03:46:57;;;;;;;27.83;25.00;;;1.00;92.30;;;;;;5053368;28;20219;-76
2020/12/26 03:49:24;;;;;;;28.05;25.75;;;1.20;91.70;;;;;;5053502;28;20246;-76
2020/12/26 03:51:51;;;;;;;27.25;24.80;;;1.30;90.80;;;;;;5053487;28;20205;-76
2020/12/26 03:54:18;;;;;;;28.48;26.13;;;1.20;90.90;;;;;;5053628;28;20654;-76
2020/12/26 03:56:44;;;;;;;28.17;25.75;;;1.10;91.00;;;;;;5043071;28;20215;-76
2020/12/26 03:59:11;;;;;;;27.85;25.48;;;1.10;91.60;;;;;;5033441;28;20666;-76
2020/12/26 04:01:37;;;;;;;27.85;25.20;;;1.10;91.80;;;;;;5033463;28;20199;-76
2020/12/26 04:04:04;;;;;;;27.73;25.30;;;1.10;92.00;;;;;;5033340;28;20314;-76
2020/12/26 04:06:31;;;;;;;29.15;26.48;;;1.10;91.70;;;;;;5048317;28;20559;-76
2020/12/26 04:08:58;;;;;;;29.08;26.45;;;1.20;91.60;;;;;;5052872;28;20572;-76
2020/12/26 04:11:25;;;;;;;30.58;25.55;;;1.10;91.70;;;;;;5053542;28;20210;-76
2020/12/26 04:13:51;;;;;;;28.70;26.15;;;1.20;91.60;;;;;;5053311;28;20656;-76
2020/12/26 04:16:18;;;;;;;27.92;25.33;;;1.30;90.90;;;;;;5039192;28;20216;-76
2020/12/26 04:18:45;;;;;;;28.02;25.42;;;1.20;90.90;;;;;;5033148;28;20282;-76
2020/12/26 04:21:11;;;;;;;27.25;25.10;;;1.30;90.70;;;;;;5033117;28;20207;-76
2020/12/26 04:23:38;;;;;;;27.60;24.80;;;1.20;90.80;;;;;;5037585;28;20219;-76
2020/12/26 04:26:09;;;;;;;27.45;25.20;;;1.20;90.80;;;;;;5052771;28;20554;-76
2020/12/26 04:28:36;;;;;;;26.88;24.52;;;1.20;90.80;;;;;;5053041;28;20203;-76
2020/12/26 04:31:02;;;;;;;26.92;24.83;;;1.20;91.10;;;;;;5052741;28;20278;-76
2020/12/26 04:33:28;;;;;;;26.40;24.35;;;1.30;90.60;;;;;;5049727;28;20651;-76
2020/12/26 04:35:55;;;;;;;26.88;24.88;;;1.30;90.30;;;;;;5051166;28;20718;-76
2020/12/26 04:38:21;;;;;;;28.27;25.20;;;1.30;90.10;;;;;;5052423;28;20196;-76
2020/12/26 04:40:49;;;;;;;25.42;23.42;;;1.30;90.30;;;;;;5052497;28;20296;-76
2020/12/26 04:43:15;;;;;;;27.23;24.58;;;1.20;90.40;;;;;;5052591;28;20214;-76
2020/12/26 04:45:42;;;;;;;26.30;24.05;;;1.20;90.80;;;;;;5044125;28;20223;-76
2020/12/26 04:48:14;;;;;;;27.10;24.80;;;1.20;91.00;;;;;;5032685;28;20188;-76
2020/12/26 04:50:46;;;;;;;27.85;25.40;;;1.30;90.90;;;;;;5032751;28;20199;-76
2020/12/26 04:53:16;;;;;;;27.27;24.73;;;1.30;90.60;;;;;;5013098;28;20239;-76
2020/12/26 04:55:47;;;;;;;27.08;24.77;;;1.40;90.40;;;;;;5012722;28;20238;-76
2020/12/26 04:58:15;;;;;;;26.80;24.63;;;1.40;90.10;;;;;;5032392;28;20199;-76
2020/12/26 05:00:43;;;;;;;28.05;25.33;;;1.30;90.30;;;;;;5052526;28;20200;-76
2020/12/26 05:03:12;;;;;;;26.42;23.98;;;1.30;90.50;;;;;;5052542;28;20250;-76
2020/12/26 05:05:40;;;;;;;26.23;23.95;;;1.30;90.90;;;;;;5052283;28;20220;-76
2020/12/26 05:08:07;;;;;;;27.42;24.98;;;1.30;90.60;;;;;;5052388;28;20211;-76
2020/12/26 05:10:35;;;;;;;27.63;25.02;;;1.40;90.50;;;;;;5041470;28;20233;-75
2020/12/26 05:13:02;;;;;;;28.48;25.83;;;1.50;90.00;;;;;;5032245;28;20241;-75
2020/12/26 05:15:29;;;;;;;25.88;23.67;;;1.50;89.60;;;;;;5032163;28;20250;-76
2020/12/26 05:17:56;;;;;;;26.90;24.17;;;1.40;90.30;;;;;;5032415;28;20193;-76
2020/12/26 05:20:23;;;;;;;27.52;25.42;;;1.50;90.50;;;;;;5040849;28;20247;-75
2020/12/26 05:23:06;;;;;;;28.90;26.10;;;1.50;90.40;;;;;;5052202;28;20199;-75
2020/12/26 05:25:32;;;;;;;28.55;25.83;;;1.50;90.60;;;;;;5052058;28;20227;-76
2020/12/26 05:28:09;;;;;;;28.15;25.40;;;1.50;90.50;;;;;;5052222;28;20566;-75
2020/12/26 05:30:37;;;;;;;29.13;25.95;;;1.60;90.60;;;;;;5041089;28;20201;-75
2020/12/26 05:33:05;;;;;;;29.52;26.73;;;1.60;90.20;;;;;;5032271;28;20704;-75
2020/12/26 05:35:36;;;;;;;28.48;25.90;;;1.80;90.10;;;;;;5032026;28;20217;-76
2020/12/26 05:38:14;;;;;;;27.58;25.15;;;1.70;89.70;;;;;;5032098;28;20204;-76
2020/12/26 05:40:45;;;;;;;29.63;27.10;;;1.80;90.00;;;;;;5042649;28;20199;-75
2020/12/26 05:43:12;;;;;;;27.65;25.27;;;1.80;89.80;;;;;;5052224;28;20212;-76
2020/12/26 05:45:42;;;;;;;29.10;26.38;;;1.90;89.60;;;;;;5051774;28;20216;-76
2020/12/26 05:48:10;;;;;;;29.60;26.65;;;1.80;89.50;;;;;;5052169;28;20204;-78
2020/12/26 05:50:37;;;;;;;27.73;25.17;;;1.80;89.70;;;;;;5042064;28;20196;-78
2020/12/26 05:53:03;;;;;;;29.50;26.63;;;1.90;89.70;;;;;;5037266;28;20185;-78
2020/12/26 05:55:40;;;;;;;28.80;26.35;;;1.90;89.50;;;;;;5051686;28;20216;-78
2020/12/26 05:58:07;;;;;;;30.77;25.70;;;1.90;89.10;;;;;;5037679;28;20192;-77
2020/12/26 06:00:35;;;;;;;27.30;24.77;;;1.80;89.10;;;;;;5052105;28;20204;-77
2020/12/26 06:03:23;;;;;;;30.38;27.63;;;1.70;89.40;;;;;;5040766;28;20236;-78
2020/12/26 06:05:51;;;;;;;30.67;27.50;;;1.60;89.80;;;;;;5035844;28;20221;-78
2020/12/26 06:08:18;;;;;;;30.38;27.50;;;1.60;89.90;;;;;;5035808;28;20282;-77
2020/12/26 06:10:51;;;;;;;30.55;27.83;;;1.50;89.80;;;;;;5035603;28;20222;-77
2020/12/26 06:13:18;;;;;;;30.63;27.67;;;1.50;89.80;;;;;;5046312;28;20286;-77
2020/12/26 06:15:54;;;;;;;30.00;27.17;;;1.50;90.00;;;;;;5054801;28;20240;-78
2020/12/26 06:18:23;;;;;;;31.42;28.38;;;1.40;90.10;;;;;;5055615;28;20199;-77
2020/12/26 06:20:51;;;;;;;30.83;28.13;;;1.30;90.30;;;;;;5056092;28;20200;-77
2020/12/26 06:23:19;;;;;;;32.00;29.40;;;1.20;90.60;;;;;;5044742;28;20792;-77
2020/12/26 06:25:46;;;;;;;29.98;27.23;;;1.10;91.00;;;;;;5035528;28;20224;-77
2020/12/26 06:28:29;;;;;;;29.70;26.75;;;1.10;91.10;;;;;;5039778;28;20726;-78
2020/12/26 06:30:58;;;;;;;32.55;29.38;;;1.00;91.50;;;;;;5043057;28;20191;-78
2020/12/26 06:33:27;;;;;;;42.95;29.42;;;1.00;91.60;;;;;;5055367;28;20199;-77
2020/12/26 06:35:55;;;;;;;30.98;28.17;;;1.00;91.50;;;;;;5055049;28;20226;-77
2020/12/26 06:38:25;;;;;;;32.00;28.48;;;1.00;91.70;;;;;;5051764;28;20199;-77
2020/12/26 06:40:54;;;;;;;32.10;28.92;;;1.00;91.80;;;;;;5034822;28;20195;-77
2020/12/26 06:43:57;;;;;;;29.67;27.17;;;0.90;91.90;;;;;;5035056;28;20689;-77
2020/12/26 06:46:47;;;;;;;29.50;26.75;;;0.90;92.10;;;;;;5034554;28;20706;-77
2020/12/26 06:49:27;;;;;;;29.30;26.55;;;0.90;92.10;;;;;;5011278;28;20199;-77
2020/12/26 06:51:54;;;;;;;30.27;27.48;;;0.90;92.10;;;;;;5036263;28;20253;-77
2020/12/26 06:54:44;;;;;;;29.80;26.88;;;0.80;92.10;;;;;;5034830;28;20280;-77
2020/12/26 06:57:36;;;;;;;31.02;27.92;;;0.80;92.40;;;;;;5034617;28;20648;-77
2020/12/26 07:00:19;;;;;;;31.02;28.27;;;0.80;92.60;;;;;;5051125;28;20203;-77
2020/12/26 07:02:45;;;;;;;31.38;28.50;;;0.70;92.90;;;;;;5042002;28;20188;-77
2020/12/26 07:05:37;;;;;;;30.83;28.08;;;0.80;92.70;;;;;;5053989;28;20289;-77
2020/12/26 07:08:04;;;;;;;32.83;29.40;;;0.80;92.80;;;;;;5054394;28;20196;-78
2020/12/26 07:10:34;;;;;;;29.83;27.27;;;0.80;92.80;;;;;;5054463;28;20207;-77
2020/12/26 07:13:00;;;;;;;30.83;27.77;;;0.90;92.80;;;;;;5039964;28;20611;-77
2020/12/26 07:15:32;;;;;;;32.20;29.40;;;0.90;92.70;;;;;;5033086;28;20200;-77
2020/12/26 07:18:22;;;;;;;32.08;28.95;;;0.90;92.70;;;;;;5034401;28;20203;-78
2020/12/26 07:20:50;;;;;;;33.25;30.08;;;1.00;92.60;;;;;;5034400;28;20660;-75
2020/12/26 07:23:16;;;;;;;32.90;29.65;;;1.00;92.60;;;;;;5036007;28;20220;-75
2020/12/26 07:25:43;;;;;;;32.95;29.95;;;1.10;91.80;;;;;;5047572;28;20221;-75
2020/12/26 07:28:12;;;;;;;31.60;28.40;;;1.20;91.20;;;;;;5034081;28;20207;-75
2020/12/26 07:30:39;;;;;;;32.47;29.17;;;1.20;90.60;;;;;;5034088;28;20254;-76
2020/12/26 07:33:05;;;;;;;33.03;29.55;;;1.00;91.10;;;;;;5034372;28;20200;-75
2020/12/26 07:35:34;;;;;;;32.03;28.67;;;1.00;91.40;;;;;;5033765;28;20212;-75
2020/12/26 07:38:07;;;;;;;33.25;29.88;;;1.10;91.60;;;;;;5033904;28;20199;-75
2020/12/26 07:40:35;;;;;;;31.65;28.63;;;1.10;91.50;;;;;;5033666;28;20273;-76
2020/12/26 07:43:03;;;;;;;29.38;26.85;;;1.20;91.60;;;;;;5033603;28;20266;-75
2020/12/26 07:45:31;;;;;;;31.90;28.98;;;1.30;91.30;;;;;;5052926;28;20219;-76
2020/12/26 07:47:59;;;;;;;32.50;29.45;;;1.30;91.00;;;;;;5053788;28;20199;-75
2020/12/26 07:50:27;;;;;;;31.20;28.25;;;1.40;90.50;;;;;;5053828;28;20202;-75
2020/12/26 07:52:55;;;;;;;30.55;27.75;;;1.50;89.80;;;;;;5053784;28;20198;-75
2020/12/26 07:55:22;;;;;;;29.65;26.60;;;1.60;89.20;;;;;;5035109;28;20276;-75
2020/12/26 07:57:49;;;;;;;30.40;27.77;;;1.60;89.10;;;;;;5034080;28;20243;-77
2020/12/26 08:00:24;;;;;;;33.13;29.65;;;1.60;89.20;;;;;;5033672;28;20201;-78
2020/12/26 08:02:51;;;;;;;32.00;29.20;;;1.60;88.90;;;;;;5033345;28;20203;-75
2020/12/26 08:05:22;;;;;;;31.90;28.92;;;1.60;88.70;;;;;;5034956;28;20199;-75
2020/12/26 08:07:48;;;;;;;31.08;28.27;;;1.60;88.70;;;;;;5052859;28;20188;-75
2020/12/26 08:10:15;;;;;;;30.52;27.52;;;1.60;88.50;;;;;;5048752;28;20200;-75
2020/12/26 08:12:54;;;;;;;31.92;29.00;;;1.60;88.60;;;;;;5053268;28;20691;-75
2020/12/26 08:15:27;;;;;;;31.88;29.25;;;1.80;88.50;;;;;;5053221;28;20209;-75
2020/12/26 08:17:55;;;;;;;32.20;29.17;;;1.70;88.60;;;;;;5053316;28;20555;-75
2020/12/26 08:20:22;;;;;;;29.50;27.20;;;1.80;88.90;;;;;;5036550;28;20552;-75
2020/12/26 08:22:49;;;;;;;28.85;26.25;;;2.00;88.50;;;;;;5033001;28;20655;-75
2020/12/26 08:25:17;;;;;;;31.10;28.55;;;2.00;87.70;;;;;;5033106;28;20228;-76
2020/12/26 08:27:44;;;;;;;29.88;27.58;;;2.00;87.70;;;;;;5032658;28;20198;-75
2020/12/26 08:30:13;;;;;;;28.65;26.23;;;2.10;87.10;;;;;;5046324;28;20199;-76
2020/12/26 08:32:51;;;;;;;29.30;26.88;;;2.30;86.20;;;;;;5052270;28;20215;-75
2020/12/26 08:35:20;;;;;;;30.10;27.63;;;2.30;85.40;;;;;;5052791;28;20201;-75
2020/12/26 08:37:48;;;;;;;29.83;27.52;;;2.30;84.80;;;;;;5050957;28;20223;-75
2020/12/26 08:40:16;;;;;;;30.70;27.92;;;2.40;84.50;;;;;;5032659;28;20197;-75
2020/12/26 08:42:43;;;;;;;29.67;27.30;;;2.50;84.10;;;;;;5049701;28;20195;-76
2020/12/26 08:45:28;;;;;;;30.20;27.63;;;2.60;84.10;;;;;;5052237;28;20266;-75
2020/12/26 08:47:58;;;;;;;30.90;28.30;;;2.50;83.80;;;;;;5050127;28;20197;-75
2020/12/26 08:50:29;;;;;;;32.15;29.48;;;2.60;84.30;;;;;;5032823;28;20217;-76
2020/12/26 08:53:06;;;;;;;30.25;27.95;;;2.70;83.80;;;;;;5032697;28;20197;-76
2020/12/26 08:55:45;;;;;;;29.55;27.10;;;2.80;83.50;;;;;;5032534;28;20221;-76
2020/12/26 08:58:22;;;;;;;32.10;29.50;;;2.90;83.00;;;;;;5049924;28;20188;-76
2020/12/26 09:00:50;;;;;;;30.95;28.55;;;3.00;82.40;;;;;;5052427;28;20661;-76
2020/12/26 09:03:20;;;;;;;31.45;29.05;;;3.10;82.00;;;;;;5043589;28;20562;-76
2020/12/26 09:05:46;;;;;;;30.50;28.20;;;3.30;81.70;;;;;;5032318;28;20216;-76
2020/12/26 09:08:13;;;;;;;30.75;28.08;;;3.40;81.10;;;;;;5048953;28;20203;-76
2020/12/26 09:10:40;;;;;;;31.42;28.95;;;3.50;80.90;;;;;;5038508;28;20209;-76
2020/12/26 09:13:09;;;;;;;30.50;28.00;;;3.60;80.10;;;;;;5032467;28;20201;-76
2020/12/26 09:15:50;;;;;;;30.80;28.40;;;3.70;79.90;;;;;;5032324;28;20697;-76
2020/12/26 09:18:17;;;;;;;30.60;28.10;;;3.80;79.30;;;;;;5037645;28;20195;-76
2020/12/26 09:20:51;;;;;;;30.55;28.08;;;3.80;79.10;;;;;;5051914;28;20196;-76
2020/12/26 09:23:17;;;;;;;30.02;27.73;;;3.80;78.70;;;;;;5052143;28;20205;-76
2020/12/26 09:25:44;;;;;;;31.20;28.80;;;3.80;79.10;;;;;;5051708;28;20212;-76
2020/12/26 09:28:10;;;;;;;32.53;30.05;;;3.90;78.80;;;;;;5047647;28;20193;-76
2020/12/26 09:30:36;;;;;;;31.85;29.35;;;4.00;78.60;;;;;;5032180;28;20197;-76
2020/12/26 09:33:04;;;;;;;31.60;29.10;;;4.00;78.50;;;;;;5032287;28;20203;-76
2020/12/26 09:35:31;;;;;;;30.75;28.58;;;4.00;78.70;;;;;;5032010;28;20771;-76
2020/12/26 09:37:58;;;;;;;30.52;28.23;;;4.10;78.80;;;;;;5033359;28;20224;-76
2020/12/26 09:40:29;;;;;;;29.48;27.25;;;4.20;78.50;;;;;;5044303;28;20196;-76
2020/12/26 09:42:55;;;;;;;30.15;27.92;;;4.30;77.80;;;;;;5056638;28;20197;-76
2020/12/26 09:45:22;;;;;;;31.63;29.05;;;4.30;77.90;;;;;;5055635;28;20212;-76
2020/12/26 09:47:48;;;;;;;30.63;28.48;;;4.30;77.80;;;;;;5055631;28;20207;-76
2020/12/26 09:50:16;;;;;;;29.23;27.00;;;4.40;77.90;;;;;;5051657;28;20194;-76
2020/12/26 09:52:43;;;;;;;28.38;26.25;;;4.60;77.40;;;;;;5035881;28;20659;-76
2020/12/26 09:55:10;;;;;;;29.42;27.17;;;4.70;77.30;;;;;;5035836;28;20198;-76
2020/12/26 09:57:37;;;;;;;29.40;27.10;;;4.70;77.30;;;;;;5035684;28;20197;-76
2020/12/26 10:00:07;;;;;;;28.83;26.52;;;4.80;77.10;;;;;;5037559;28;20255;-76
2020/12/26 10:02:34;;;;;;;28.98;27.08;;;4.80;76.90;;;;;;5055807;28;20205;-76
2020/12/26 10:05:04;;;;;;;28.85;26.40;;;4.80;77.00;;;;;;5055604;28;20600;-76
2020/12/26 10:07:32;;;;;;;29.25;27.15;;;4.90;77.10;;;;;;5044607;28;20583;-76
2020/12/26 10:09:59;;;;;;;27.65;25.90;;;5.10;76.40;;;;;;5035599;28;20263;-76
2020/12/26 10:12:25;;;;;;;28.23;26.42;;;5.10;75.90;;;;;;5035338;28;20194;-76
2020/12/26 10:14:51;;;;;;;30.58;28.58;;;5.20;75.50;;;;;;5035487;28;20197;-76
2020/12/26 10:17:18;;;;;;;29.40;27.50;;;5.20;75.40;;;;;;5035195;28;20270;-76
2020/12/26 10:19:46;;;;;;;30.35;28.27;;;5.20;74.80;;;;;;5035350;28;20374;-76
2020/12/26 10:22:12;;;;;;;28.20;26.30;;;5.20;74.80;;;;;;5045484;28;20195;-76
2020/12/26 10:24:39;;;;;;;27.45;25.65;;;5.40;74.50;;;;;;5055444;28;20224;-76
2020/12/26 10:27:05;;;;;;;27.33;25.60;;;5.50;74.10;;;;;;5048727;28;20790;-76
2020/12/26 10:29:32;;;;;;;26.35;24.75;;;5.50;73.80;;;;;;5036227;28;20194;-76
2020/12/26 10:31:58;;;;;;;28.23;26.17;;;5.50;72.80;;;;;;5035150;28;20190;-75
2020/12/26 10:34:25;;;;;;;27.98;26.08;;;5.50;73.10;;;;;;5049639;28;20197;-75
2020/12/26 10:36:51;;;;;;;28.88;27.00;;;5.40;73.10;;;;;;5054886;28;20219;-76
2020/12/26 10:39:17;;;;;;;27.67;25.85;;;5.40;73.10;;;;;;5049801;28;20245;-76
2020/12/26 10:41:45;;;;;;;29.30;27.40;;;5.40;73.10;;;;;;5034588;28;20310;-76
2020/12/26 10:44:12;;;;;;;27.00;25.00;;;5.40;73.10;;;;;;5048740;28;20219;-76
2020/12/26 10:46:39;;;;;;;29.15;27.42;;;5.50;73.00;;;;;;5053822;28;20669;-76
2020/12/26 10:49:05;;;;;;;27.52;25.42;;;5.60;72.40;;;;;;5054494;28;20578;-76
2020/12/26 10:51:32;;;;;;;27.98;26.20;;;5.70;71.10;;;;;;5054783;28;20661;-76
2020/12/26 10:53:59;;;;;;;26.95;25.25;;;5.70;70.80;;;;;;5054422;28;20262;-76
2020/12/26 10:56:25;;;;;;;26.65;25.05;;;5.60;69.90;;;;;;5054509;28;20224;-76
2020/12/26 10:58:52;;;;;;;27.42;25.58;;;5.50;70.90;;;;;;5054587;28;20568;-76
2020/12/26 11:01:19;;;;;;;26.08;24.48;;;5.60;70.80;;;;;;5054705;28;20196;-75
2020/12/26 11:03:45;;;;;;;28.15;26.27;;;5.50;70.90;;;;;;5053764;28;20220;-75
2020/12/26 11:06:11;;;;;;;26.95;24.90;;;5.60;70.70;;;;;;5054253;28;20263;-76
2020/12/26 11:08:38;;;;;;;25.85;24.35;;;5.70;70.60;;;;;;5054428;28;20203;-76
2020/12/26 11:11:05;;;;;;;26.95;25.15;;;5.70;70.60;;;;;;5054487;28;20301;-76
2020/12/26 11:13:31;;;;;;;26.17;24.45;;;5.80;69.80;;;;;;5046530;28;20199;-76
2020/12/26 11:15:58;;;;;;;28.70;26.80;;;5.80;70.50;;;;;;5034239;28;20217;-78
2020/12/26 11:18:25;;;;;;;27.38;25.58;;;5.90;69.60;;;;;;5034534;28;20573;-78
2020/12/26 11:20:52;;;;;;;28.02;26.23;;;6.00;68.60;;;;;;5035919;28;20204;-78
2020/12/26 11:23:18;;;;;;;26.10;24.58;;;5.90;68.20;;;;;;5054456;28;20207;-78
2020/12/26 11:25:45;;;;;;;28.80;26.90;;;5.90;68.40;;;;;;5053967;28;20269;-76
2020/12/26 11:28:11;;;;;;;28.15;26.25;;;5.70;68.00;;;;;;5050990;28;20201;-76
2020/12/26 11:30:37;;;;;;;28.70;27.13;;;5.60;68.00;;;;;;5034188;28;20195;-76
2020/12/26 11:33:04;;;;;;;27.23;25.17;;;5.50;68.20;;;;;;5034123;28;20217;-76
2020/12/26 11:35:31;;;;;;;28.55;26.65;;;5.60;67.80;;;;;;5033886;28;20210;-76
2020/12/26 11:37:57;;;;;;;28.10;26.20;;;5.60;67.40;;;;;;5034702;28;20204;-76
2020/12/26 11:40:23;;;;;;;27.25;25.35;;;5.50;67.80;;;;;;5053635;28;20677;-76
2020/12/26 11:42:50;;;;;;;28.45;26.50;;;5.60;68.40;;;;;;5037154;28;20256;-76
2020/12/26 11:45:16;;;;;;;26.58;24.83;;;5.60;68.70;;;;;;5034278;28;20234;-76
2020/12/26 11:47:42;;;;;;;26.55;24.95;;;5.60;69.00;;;;;;5053339;28;20193;-76
2020/12/26 11:50:10;;;;;;;24.98;23.20;;;5.70;68.20;;;;;;5053366;28;20203;-76
2020/12/26 11:52:36;;;;;;;26.08;24.45;;;5.70;67.60;;;;;;5053761;28;20207;-76
2020/12/26 11:55:03;;;;;;;26.73;24.98;;;5.70;68.00;;;;;;5053537;28;20655;-76
2020/12/26 11:57:29;;;;;;;26.35;24.50;;;5.70;68.40;;;;;;5051545;28;20620;-76
2020/12/26 11:59:55;;;;;;;26.30;24.50;;;5.60;67.80;;;;;;5053493;28;20284;-76
2020/12/26 12:02:22;;;;;;;26.23;24.33;;;5.60;67.50;;;;;;5052738;28;20198;-76
2020/12/26 12:04:48;;;;;;;24.80;23.20;;;5.70;67.00;;;;;;5042610;28;20263;-76
2020/12/26 12:07:15;;;;;;;27.45;25.55;;;5.80;67.30;;;;;;5033220;28;20219;-76
2020/12/26 12:09:42;;;;;;;28.25;26.30;;;5.90;67.50;;;;;;5033229;28;20742;-76
2020/12/26 12:12:08;;;;;;;26.10;24.50;;;5.80;67.60;;;;;;5033387;28;20334;-76
2020/12/26 12:14:34;;;;;;;27.58;25.40;;;6.00;67.20;;;;;;5041483;28;20241;-76
2020/12/26 12:17:01;;;;;;;28.60;26.73;;;6.00;67.10;;;;;;5044905;28;20218;-76
2020/12/26 12:19:27;;;;;;;27.50;25.60;;;6.00;67.60;;;;;;5033272;28;20207;-76
2020/12/26 12:21:53;;;;;;;27.73;25.83;;;6.10;68.00;;;;;;5033241;28;20571;-76
2020/12/26 12:24:21;;;;;;;27.77;26.08;;;6.00;68.80;;;;;;5039053;28;20217;-76
2020/12/26 12:26:47;;;;;;;26.90;24.95;;;6.00;68.90;;;;;;5052865;28;20264;-76
2020/12/26 12:29:13;;;;;;;28.30;26.15;;;6.10;68.50;;;;;;5052856;28;20199;-76
2020/12/26 12:31:41;;;;;;;27.15;25.55;;;6.20;68.50;;;;;;5053171;28;20200;-76
2020/12/26 12:34:08;;;;;;;28.15;26.35;;;6.10;67.80;;;;;;5048485;28;20185;-76
2020/12/26 12:36:34;;;;;;;26.60;24.83;;;6.00;68.60;;;;;;5032722;28;20217;-76
2020/12/26 12:39:01;;;;;;;27.10;25.35;;;6.00;68.50;;;;;;5032755;28;20206;-76
2020/12/26 12:41:28;;;;;;;26.55;24.88;;;6.20;68.30;;;;;;5032563;28;20269;-76